Antelope, Montana
Current Conditions -  °F | °C
As of 11:52 PM on Wednesday 22 Oct 2014 (Local Time) from KISN Reporting Station
Clear Clear  
Wind Chill: 40°   Ceiling: Unl
Heat Index: 40°   Visibility: 10mi
Dew Point: 31°   Wind: 0mph
Humidity: 70%   Direction: NA
Pressure: 29.86"   Gusts: NA
Location:  48.69°N, 104.46°W
Report Text: KISN 230552Z AUTO 00000KT 10SM CLR 04/M01 A2986 RMK AO2 SLP119 T00441006 10139 20044 401720044 50000
Loading
Personal Weather Stations






























Interactive Weather Map New forecast layout! Learn more

10-Day Weather Forecast

Advertisements
Track Severe Weather on mobile